sensor_id;sensor_type;location;lat;lon;timestamp;pressure;altitude;pressure_sealevel;temperature
30765;BMP180;494;48.744;10.106;2024-02-21T00:01:15;96666.00;;;7.60
30765;BMP180;494;48.744;10.106;2024-02-21T00:03:44;96127.00;;;7.30
30765;BMP180;494;48.744;10.106;2024-02-21T00:06:13;96496.00;;;7.70
30765;BMP180;494;48.744;10.106;2024-02-21T00:08:43;96420.00;;;7.70
30765;BMP180;494;48.744;10.106;2024-02-21T00:11:12;96592.00;;;7.90
30765;BMP180;494;48.744;10.106;2024-02-21T00:13:41;96402.00;;;7.80
30765;BMP180;494;48.744;10.106;2024-02-21T00:16:10;96598.00;;;7.80
30765;BMP180;494;48.744;10.106;2024-02-21T00:18:39;96030.00;;;8.00
30765;BMP180;494;48.744;10.106;2024-02-21T00:21:08;96449.00;;;7.90
30765;BMP180;494;48.744;10.106;2024-02-21T00:23:36;96155.00;;;7.90
30765;BMP180;494;48.744;10.106;2024-02-21T00:26:09;96599.00;;;7.90
30765;BMP180;494;48.744;10.106;2024-02-21T00:28:38;95992.00;;;7.90
30765;BMP180;494;48.744;10.106;2024-02-21T00:31:07;96519.00;;;7.90
30765;BMP180;494;48.744;10.106;2024-02-21T00:33:36;96378.00;;;7.90
30765;BMP180;494;48.744;10.106;2024-02-21T00:36:06;96182.00;;;7.80
30765;BMP180;494;48.744;10.106;2024-02-21T00:38:35;96542.00;;;7.30
30765;BMP180;494;48.744;10.106;2024-02-21T00:41:04;96580.00;;;7.90
30765;BMP180;494;48.744;10.106;2024-02-21T00:43:34;96627.00;;;8.00
30765;BMP180;494;48.744;10.106;2024-02-21T00:46:06;96577.00;;;7.90
30765;BMP180;494;48.744;10.106;2024-02-21T00:48:35;96349.00;;;7.90
30765;BMP180;494;48.744;10.106;2024-02-21T00:51:04;96591.00;;;7.90
30765;BMP180;494;48.744;10.106;2024-02-21T00:53:32;96446.00;;;7.80
30765;BMP180;494;48.744;10.106;2024-02-21T00:56:01;96566.00;;;7.90
30765;BMP180;494;48.744;10.106;2024-02-21T00:58:31;96426.00;;;8.00
30765;BMP180;494;48.744;10.106;2024-02-21T01:01:02;95670.00;;;8.00
30765;BMP180;494;48.744;10.106;2024-02-21T01:03:31;96191.00;;;8.00
30765;BMP180;494;48.744;10.106;2024-02-21T01:06:00;95570.00;;;7.90
30765;BMP180;494;48.744;10.106;2024-02-21T01:08:28;95958.00;;;7.40
30765;BMP180;494;48.744;10.106;2024-02-21T01:10:57;96395.00;;;7.90
30765;BMP180;494;48.744;10.106;2024-02-21T01:13:26;96434.00;;;7.90
30765;BMP180;494;48.744;10.106;2024-02-21T01:15:55;96374.00;;;7.50
30765;BMP180;494;48.744;10.106;2024-02-21T01:18:25;96153.00;;;8.00
30765;BMP180;494;48.744;10.106;2024-02-21T01:20:53;96426.00;;;7.30
30765;BMP180;494;48.744;10.106;2024-02-21T01:23:23;96561.00;;;7.30
30765;BMP180;494;48.744;10.106;2024-02-21T01:25:52;95722.00;;;7.80
30765;BMP180;494;48.744;10.106;2024-02-21T01:28:21;95133.00;;;7.70
30765;BMP180;494;48.744;10.106;2024-02-21T01:30:50;96273.00;;;7.80
30765;BMP180;494;48.744;10.106;2024-02-21T01:33:19;96355.00;;;7.40
30765;BMP180;494;48.744;10.106;2024-02-21T01:35:50;95914.00;;;6.60
30765;BMP180;494;48.744;10.106;2024-02-21T01:38:19;96486.00;;;7.60
30765;BMP180;494;48.744;10.106;2024-02-21T01:40:48;96249.00;;;7.00
30765;BMP180;494;48.744;10.106;2024-02-21T01:43:19;96516.00;;;7.70
30765;BMP180;494;48.744;10.106;2024-02-21T01:45:52;96372.00;;;7.70
30765;BMP180;494;48.744;10.106;2024-02-21T01:48:22;96162.00;;;6.30
30765;BMP180;494;48.744;10.106;2024-02-21T01:50:54;96056.00;;;7.70
30765;BMP180;494;48.744;10.106;2024-02-21T01:53:29;96078.00;;;7.60
30765;BMP180;494;48.744;10.106;2024-02-21T01:55:58;96246.00;;;7.20
30765;BMP180;494;48.744;10.106;2024-02-21T01:58:29;96397.00;;;7.30
30765;BMP180;494;48.744;10.106;2024-02-21T02:00:59;96479.00;;;7.80
30765;BMP180;494;48.744;10.106;2024-02-21T02:03:28;95718.00;;;7.70
30765;BMP180;494;48.744;10.106;2024-02-21T02:06:00;95785.00;;;7.60
30765;BMP180;494;48.744;10.106;2024-02-21T02:08:28;96270.00;;;6.60
30765;BMP180;494;48.744;10.106;2024-02-21T02:10:57;96470.00;;;8.00
30765;BMP180;494;48.744;10.106;2024-02-21T02:13:26;96357.00;;;7.80
30765;BMP180;494;48.744;10.106;2024-02-21T02:15:56;96401.00;;;7.90
30765;BMP180;494;48.744;10.106;2024-02-21T02:18:24;96018.00;;;7.70
30765;BMP180;494;48.744;10.106;2024-02-21T02:20:53;96279.00;;;5.60
30765;BMP180;494;48.744;10.106;2024-02-21T02:23:25;96217.00;;;6.20
30765;BMP180;494;48.744;10.106;2024-02-21T02:25:54;96196.00;;;6.80
30765;BMP180;494;48.744;10.106;2024-02-21T02:28:23;96438.00;;;7.20
30765;BMP180;494;48.744;10.106;2024-02-21T02:30:52;96440.00;;;7.80
30765;BMP180;494;48.744;10.106;2024-02-21T02:33:21;96480.00;;;7.70
30765;BMP180;494;48.744;10.106;2024-02-21T02:35:50;96423.00;;;6.40
30765;BMP180;494;48.744;10.106;2024-02-21T02:38:19;96480.00;;;6.00
30765;BMP180;494;48.744;10.106;2024-02-21T02:40:49;95436.00;;;6.20
30765;BMP180;494;48.744;10.106;2024-02-21T02:43:17;96432.00;;;7.80
30765;BMP180;494;48.744;10.106;2024-02-21T02:45:47;96313.00;;;7.70
30765;BMP180;494;48.744;10.106;2024-02-21T02:48:16;96245.00;;;7.20
30765;BMP180;494;48.744;10.106;2024-02-21T02:50:44;96106.00;;;7.60
30765;BMP180;494;48.744;10.106;2024-02-21T02:53:13;96421.00;;;7.10
30765;BMP180;494;48.744;10.106;2024-02-21T02:55:42;96373.00;;;7.40
30765;BMP180;494;48.744;10.106;2024-02-21T02:58:12;95649.00;;;3.70
30765;BMP180;494;48.744;10.106;2024-02-21T03:00:41;95596.00;;;4.20
30765;BMP180;494;48.744;10.106;2024-02-21T03:03:11;95762.00;;;5.30
30765;BMP180;494;48.744;10.106;2024-02-21T03:05:40;95610.00;;;7.10
30765;BMP180;494;48.744;10.106;2024-02-21T03:08:08;96266.00;;;5.60
30765;BMP180;494;48.744;10.106;2024-02-21T03:10:37;96318.00;;;7.10
30765;BMP180;494;48.744;10.106;2024-02-21T03:13:06;96160.00;;;3.60
30765;BMP180;494;48.744;10.106;2024-02-21T03:15:36;95333.00;;;6.80
30765;BMP180;494;48.744;10.106;2024-02-21T03:18:05;96467.00;;;6.80
30765;BMP180;494;48.744;10.106;2024-02-21T03:20:34;96503.00;;;5.30
30765;BMP180;494;48.744;10.106;2024-02-21T03:23:03;96372.00;;;6.60
30765;BMP180;494;48.744;10.106;2024-02-21T03:25:32;96514.00;;;6.20
30765;BMP180;494;48.744;10.106;2024-02-21T03:28:01;96209.00;;;6.80
30765;BMP180;494;48.744;10.106;2024-02-21T03:30:30;96450.00;;;5.30
30765;BMP180;494;48.744;10.106;2024-02-21T03:33:03;96064.00;;;6.90
30765;BMP180;494;48.744;10.106;2024-02-21T03:35:32;96464.00;;;6.80
30765;BMP180;494;48.744;10.106;2024-02-21T03:38:01;96371.00;;;4.00
30765;BMP180;494;48.744;10.106;2024-02-21T03:40:30;96294.00;;;7.00
30765;BMP180;494;48.744;10.106;2024-02-21T03:42:59;96600.00;;;6.90
30765;BMP180;494;48.744;10.106;2024-02-21T03:45:28;96239.00;;;7.00
30765;BMP180;494;48.744;10.106;2024-02-21T03:47:57;96510.00;;;6.70
30765;BMP180;494;48.744;10.106;2024-02-21T03:50:28;95976.00;;;4.30
30765;BMP180;494;48.744;10.106;2024-02-21T03:52:57;96241.00;;;7.10
30765;BMP180;494;48.744;10.106;2024-02-21T03:55:26;96477.00;;;6.90
30765;BMP180;494;48.744;10.106;2024-02-21T03:57:54;95266.00;;;6.70
30765;BMP180;494;48.744;10.106;2024-02-21T04:00:24;95284.00;;;4.90
30765;BMP180;494;48.744;10.106;2024-02-21T04:02:52;96350.00;;;7.00
30765;BMP180;494;48.744;10.106;2024-02-21T04:05:23;96227.00;;;5.40
30765;BMP180;494;48.744;10.106;2024-02-21T04:07:53;95755.00;;;5.90
30765;BMP180;494;48.744;10.106;2024-02-21T04:10:22;96425.00;;;7.00
30765;BMP180;494;48.744;10.106;2024-02-21T04:12:51;96015.00;;;5.50
30765;BMP180;494;48.744;10.106;2024-02-21T04:15:20;95080.00;;;6.80
30765;BMP180;494;48.744;10.106;2024-02-21T04:17:48;96419.00;;;4.90
30765;BMP180;494;48.744;10.106;2024-02-21T04:20:18;96236.00;;;4.90
30765;BMP180;494;48.744;10.106;2024-02-21T04:22:47;96248.00;;;5.40
30765;BMP180;494;48.744;10.106;2024-02-21T04:25:17;95913.00;;;6.80
30765;BMP180;494;48.744;10.106;2024-02-21T04:27:46;96222.00;;;5.70
30765;BMP180;494;48.744;10.106;2024-02-21T04:30:15;96349.00;;;6.90
30765;BMP180;494;48.744;10.106;2024-02-21T04:32:44;96258.00;;;6.80
30765;BMP180;494;48.744;10.106;2024-02-21T04:35:13;96217.00;;;7.10
30765;BMP180;494;48.744;10.106;2024-02-21T04:37:42;96383.00;;;5.20
30765;BMP180;494;48.744;10.106;2024-02-21T04:40:12;96241.00;;;4.90
30765;BMP180;494;48.744;10.106;2024-02-21T04:42:43;96328.00;;;7.00
30765;BMP180;494;48.744;10.106;2024-02-21T04:45:13;95285.00;;;5.90
30765;BMP180;494;48.744;10.106;2024-02-21T04:47:43;96205.00;;;7.20
30765;BMP180;494;48.744;10.106;2024-02-21T04:50:11;96160.00;;;7.30
30765;BMP180;494;48.744;10.106;2024-02-21T04:52:41;96369.00;;;6.20
30765;BMP180;494;48.744;10.106;2024-02-21T04:55:09;95919.00;;;7.20
30765;BMP180;494;48.744;10.106;2024-02-21T04:57:38;96253.00;;;4.40
30765;BMP180;494;48.744;10.106;2024-02-21T05:00:11;95411.00;;;7.40
30765;BMP180;494;48.744;10.106;2024-02-21T05:02:40;96607.00;;;4.00
30765;BMP180;494;48.744;10.106;2024-02-21T05:05:10;96192.00;;;4.70
30765;BMP180;494;48.744;10.106;2024-02-21T05:07:39;95605.00;;;7.30
30765;BMP180;494;48.744;10.106;2024-02-21T05:10:08;96462.00;;;7.30
30765;BMP180;494;48.744;10.106;2024-02-21T05:12:38;96362.00;;;7.10
30765;BMP180;494;48.744;10.106;2024-02-21T05:15:09;96245.00;;;6.70
30765;BMP180;494;48.744;10.106;2024-02-21T05:17:38;95280.00;;;7.20
30765;BMP180;494;48.744;10.106;2024-02-21T05:20:09;95874.00;;;7.20
30765;BMP180;494;48.744;10.106;2024-02-21T05:22:39;96258.00;;;7.20
30765;BMP180;494;48.744;10.106;2024-02-21T05:25:09;95593.00;;;7.20
30765;BMP180;494;48.744;10.106;2024-02-21T05:27:38;95291.00;;;4.30
30765;BMP180;494;48.744;10.106;2024-02-21T05:30:10;96316.00;;;7.10
30765;BMP180;494;48.744;10.106;2024-02-21T05:32:38;95992.00;;;7.10
30765;BMP180;494;48.744;10.106;2024-02-21T05:35:08;95339.00;;;6.70
30765;BMP180;494;48.744;10.106;2024-02-21T05:37:37;95719.00;;;6.60
30765;BMP180;494;48.744;10.106;2024-02-21T05:40:07;96408.00;;;6.70
30765;BMP180;494;48.744;10.106;2024-02-21T05:42:37;96275.00;;;6.10
30765;BMP180;494;48.744;10.106;2024-02-21T05:45:08;95628.00;;;6.50
30765;BMP180;494;48.744;10.106;2024-02-21T05:47:36;96182.00;;;4.60
30765;BMP180;494;48.744;10.106;2024-02-21T05:50:06;96258.00;;;6.60
30765;BMP180;494;48.744;10.106;2024-02-21T05:52:35;95381.00;;;4.70
30765;BMP180;494;48.744;10.106;2024-02-21T05:55:08;95610.00;;;6.30
30765;BMP180;494;48.744;10.106;2024-02-21T05:57:37;96281.00;;;6.50
30765;BMP180;494;48.744;10.106;2024-02-21T06:00:09;96158.00;;;6.30
30765;BMP180;494;48.744;10.106;2024-02-21T06:02:37;96219.00;;;6.40
30765;BMP180;494;48.744;10.106;2024-02-21T06:05:08;96095.00;;;6.30
30765;BMP180;494;48.744;10.106;2024-02-21T06:07:36;96139.00;;;6.30
30765;BMP180;494;48.744;10.106;2024-02-21T06:10:08;96184.00;;;6.30
30765;BMP180;494;48.744;10.106;2024-02-21T06:12:36;96271.00;;;5.40
30765;BMP180;494;48.744;10.106;2024-02-21T06:15:09;96269.00;;;6.30
30765;BMP180;494;48.744;10.106;2024-02-21T06:17:39;96319.00;;;6.20
30765;BMP180;494;48.744;10.106;2024-02-21T06:20:09;96204.00;;;6.30
30765;BMP180;494;48.744;10.106;2024-02-21T06:22:37;96129.00;;;5.50
30765;BMP180;494;48.744;10.106;2024-02-21T06:25:07;96148.00;;;6.40
30765;BMP180;494;48.744;10.106;2024-02-21T06:27:35;96144.00;;;4.90
30765;BMP180;494;48.744;10.106;2024-02-21T06:30:06;96302.00;;;6.40
30765;BMP180;494;48.744;10.106;2024-02-21T06:36:54;96369.00;;;4.60
30765;BMP180;494;48.744;10.106;2024-02-21T06:39:32;95595.00;;;6.40
30765;BMP180;494;48.744;10.106;2024-02-21T06:42:01;96453.00;;;6.50
30765;BMP180;494;48.744;10.106;2024-02-21T06:44:30;95563.00;;;2.80
30765;BMP180;494;48.744;10.106;2024-02-21T06:47:04;96400.00;;;6.10
30765;BMP180;494;48.744;10.106;2024-02-21T06:49:33;96344.00;;;3.60
30765;BMP180;494;48.744;10.106;2024-02-21T06:52:04;96041.00;;;6.20
30765;BMP180;494;48.744;10.106;2024-02-21T06:54:33;96269.00;;;6.20
30765;BMP180;494;48.744;10.106;2024-02-21T06:57:02;95393.00;;;6.40
30765;BMP180;494;48.744;10.106;2024-02-21T06:59:30;96068.00;;;5.50
30765;BMP180;494;48.744;10.106;2024-02-21T07:01:59;96054.00;;;6.40
30765;BMP180;494;48.744;10.106;2024-02-21T07:04:28;96124.00;;;6.10
30765;BMP180;494;48.744;10.106;2024-02-21T07:06:57;96182.00;;;6.60
30765;BMP180;494;48.744;10.106;2024-02-21T07:09:27;96255.00;;;6.70
30765;BMP180;494;48.744;10.106;2024-02-21T07:11:59;96254.00;;;6.80
30765;BMP180;494;48.744;10.106;2024-02-21T07:14:28;96256.00;;;7.00
30765;BMP180;494;48.744;10.106;2024-02-21T07:16:57;96076.00;;;7.00
30765;BMP180;494;48.744;10.106;2024-02-21T07:19:25;96020.00;;;6.70
30765;BMP180;494;48.744;10.106;2024-02-21T07:21:54;96094.00;;;6.60
30765;BMP180;494;48.744;10.106;2024-02-21T07:24:24;96254.00;;;7.00
30765;BMP180;494;48.744;10.106;2024-02-21T07:26:54;96214.00;;;7.40
30765;BMP180;494;48.744;10.106;2024-02-21T07:29:23;95667.00;;;7.50
30765;BMP180;494;48.744;10.106;2024-02-21T07:31:51;96117.00;;;7.60
30765;BMP180;494;48.744;10.106;2024-02-21T07:34:21;96112.00;;;7.40
30765;BMP180;494;48.744;10.106;2024-02-21T07:36:50;95687.00;;;7.90
30765;BMP180;494;48.744;10.106;2024-02-21T07:39:18;96133.00;;;6.60
30765;BMP180;494;48.744;10.106;2024-02-21T07:41:47;96142.00;;;7.40
30765;BMP180;494;48.744;10.106;2024-02-21T07:44:17;96248.00;;;8.10
30765;BMP180;494;48.744;10.106;2024-02-21T07:46:46;96168.00;;;6.70
30765;BMP180;494;48.744;10.106;2024-02-21T07:49:15;96219.00;;;8.20
30765;BMP180;494;48.744;10.106;2024-02-21T07:51:43;96005.00;;;7.50
30765;BMP180;494;48.744;10.106;2024-02-21T07:54:12;96208.00;;;8.70
30765;BMP180;494;48.744;10.106;2024-02-21T07:56:43;95997.00;;;8.60
30765;BMP180;494;48.744;10.106;2024-02-21T07:59:12;96065.00;;;8.60
30765;BMP180;494;48.744;10.106;2024-02-21T08:01:42;96202.00;;;9.20
30765;BMP180;494;48.744;10.106;2024-02-21T08:04:12;95957.00;;;9.00
30765;BMP180;494;48.744;10.106;2024-02-21T08:06:42;96191.00;;;9.20
30765;BMP180;494;48.744;10.106;2024-02-21T08:09:10;96189.00;;;10.00
30765;BMP180;494;48.744;10.106;2024-02-21T08:11:39;96430.00;;;10.20
30765;BMP180;494;48.744;10.106;2024-02-21T08:14:08;95853.00;;;8.90
30765;BMP180;494;48.744;10.106;2024-02-21T08:16:37;95487.00;;;10.00
30765;BMP180;494;48.744;10.106;2024-02-21T08:19:17;96207.00;;;11.10
30765;BMP180;494;48.744;10.106;2024-02-21T08:21:46;95038.00;;;8.10
30765;BMP180;494;48.744;10.106;2024-02-21T08:24:15;96234.00;;;10.90
30765;BMP180;494;48.744;10.106;2024-02-21T08:26:44;95555.00;;;11.80
30765;BMP180;494;48.744;10.106;2024-02-21T08:29:13;96038.00;;;12.10
30765;BMP180;494;48.744;10.106;2024-02-21T08:31:42;95668.00;;;12.10
30765;BMP180;494;48.744;10.106;2024-02-21T08:34:10;95207.00;;;12.20
30765;BMP180;494;48.744;10.106;2024-02-21T08:36:43;95582.00;;;12.80
30765;BMP180;494;48.744;10.106;2024-02-21T08:39:12;95632.00;;;12.70
30765;BMP180;494;48.744;10.106;2024-02-21T08:41:43;96144.00;;;13.40
30765;BMP180;494;48.744;10.106;2024-02-21T08:44:24;95525.00;;;12.90
30765;BMP180;494;48.744;10.106;2024-02-21T08:46:54;96002.00;;;14.30
30765;BMP180;494;48.744;10.106;2024-02-21T08:49:23;96027.00;;;14.20
30765;BMP180;494;48.744;10.106;2024-02-21T08:52:02;96036.00;;;14.60
30765;BMP180;494;48.744;10.106;2024-02-21T08:54:31;96124.00;;;14.50
30765;BMP180;494;48.744;10.106;2024-02-21T08:57:00;96111.00;;;15.70
30765;BMP180;494;48.744;10.106;2024-02-21T08:59:28;96116.00;;;16.10
30765;BMP180;494;48.744;10.106;2024-02-21T09:01:57;96105.00;;;16.50
30765;BMP180;494;48.744;10.106;2024-02-21T09:04:25;95941.00;;;16.80
30765;BMP180;494;48.744;10.106;2024-02-21T09:06:55;96103.00;;;17.00
30765;BMP180;494;48.744;10.106;2024-02-21T09:09:25;95854.00;;;17.40
30765;BMP180;494;48.744;10.106;2024-02-21T09:11:56;96006.00;;;17.60
30765;BMP180;494;48.744;10.106;2024-02-21T09:14:25;95971.00;;;17.20
30765;BMP180;494;48.744;10.106;2024-02-21T09:16:53;95991.00;;;17.80
30765;BMP180;494;48.744;10.106;2024-02-21T09:19:23;96054.00;;;18.20
30765;BMP180;494;48.744;10.106;2024-02-21T09:21:52;96038.00;;;18.20
30765;BMP180;494;48.744;10.106;2024-02-21T09:24:20;96014.00;;;17.30
30765;BMP180;494;48.744;10.106;2024-02-21T09:26:51;96090.00;;;17.80
30765;BMP180;494;48.744;10.106;2024-02-21T09:29:20;96031.00;;;17.00
30765;BMP180;494;48.744;10.106;2024-02-21T09:31:53;95961.00;;;17.50
30765;BMP180;494;48.744;10.106;2024-02-21T09:34:22;95946.00;;;17.30
30765;BMP180;494;48.744;10.106;2024-02-21T09:36:52;95959.00;;;17.50
30765;BMP180;494;48.744;10.106;2024-02-21T09:39:20;96004.00;;;17.00
30765;BMP180;494;48.744;10.106;2024-02-21T09:41:59;96070.00;;;16.80
30765;BMP180;494;48.744;10.106;2024-02-21T09:44:34;96102.00;;;16.80
30765;BMP180;494;48.744;10.106;2024-02-21T09:47:10;96002.00;;;16.60
30765;BMP180;494;48.744;10.106;2024-02-21T09:49:42;96012.00;;;16.30
30765;BMP180;494;48.744;10.106;2024-02-21T09:52:13;95904.00;;;16.30
30765;BMP180;494;48.744;10.106;2024-02-21T09:54:43;96073.00;;;15.80
30765;BMP180;494;48.744;10.106;2024-02-21T09:57:14;95884.00;;;16.50
30765;BMP180;494;48.744;10.106;2024-02-21T09:59:44;95899.00;;;14.90
30765;BMP180;494;48.744;10.106;2024-02-21T10:02:13;96070.00;;;16.60
30765;BMP180;494;48.744;10.106;2024-02-21T10:04:41;96036.00;;;16.70
30765;BMP180;494;48.744;10.106;2024-02-21T10:07:10;95892.00;;;17.00
30765;BMP180;494;48.744;10.106;2024-02-21T10:09:39;96066.00;;;16.70
30765;BMP180;494;48.744;10.106;2024-02-21T10:12:10;95962.00;;;16.50
30765;BMP180;494;48.744;10.106;2024-02-21T10:14:42;95848.00;;;16.30
30765;BMP180;494;48.744;10.106;2024-02-21T10:17:16;95983.00;;;16.10
30765;BMP180;494;48.744;10.106;2024-02-21T10:19:46;96053.00;;;17.00
30765;BMP180;494;48.744;10.106;2024-02-21T10:22:17;95827.00;;;16.90
30765;BMP180;494;48.744;10.106;2024-02-21T10:24:48;95942.00;;;17.50
30765;BMP180;494;48.744;10.106;2024-02-21T10:27:16;95799.00;;;17.00
30765;BMP180;494;48.744;10.106;2024-02-21T10:29:49;95947.00;;;17.70
30765;BMP180;494;48.744;10.106;2024-02-21T10:32:19;96036.00;;;17.60
30765;BMP180;494;48.744;10.106;2024-02-21T10:34:47;96087.00;;;17.00
30765;BMP180;494;48.744;10.106;2024-02-21T10:37:21;96021.00;;;17.50
30765;BMP180;494;48.744;10.106;2024-02-21T10:39:49;95459.00;;;18.20
30765;BMP180;494;48.744;10.106;2024-02-21T10:42:22;95998.00;;;18.90
30765;BMP180;494;48.744;10.106;2024-02-21T10:44:53;95640.00;;;18.60
30765;BMP180;494;48.744;10.106;2024-02-21T10:47:23;95769.00;;;19.50
30765;BMP180;494;48.744;10.106;2024-02-21T10:50:03;96022.00;;;19.80
30765;BMP180;494;48.744;10.106;2024-02-21T10:52:50;96003.00;;;19.60
30765;BMP180;494;48.744;10.106;2024-02-21T10:55:32;95897.00;;;20.30
30765;BMP180;494;48.744;10.106;2024-02-21T10:58:04;96002.00;;;21.00
30765;BMP180;494;48.744;10.106;2024-02-21T11:00:35;95517.00;;;21.00
30765;BMP180;494;48.744;10.106;2024-02-21T11:03:05;95998.00;;;21.40
30765;BMP180;494;48.744;10.106;2024-02-21T11:05:35;95970.00;;;21.30
30765;BMP180;494;48.744;10.106;2024-02-21T11:08:06;95843.00;;;21.70
30765;BMP180;494;48.744;10.106;2024-02-21T11:10:37;95979.00;;;22.10
30765;BMP180;494;48.744;10.106;2024-02-21T11:13:08;96013.00;;;22.10
30765;BMP180;494;48.744;10.106;2024-02-21T11:15:39;95972.00;;;22.50
30765;BMP180;494;48.744;10.106;2024-02-21T11:18:07;95912.00;;;21.50
30765;BMP180;494;48.744;10.106;2024-02-21T11:20:37;95852.00;;;22.40
30765;BMP180;494;48.744;10.106;2024-02-21T11:23:06;95898.00;;;23.30
30765;BMP180;494;48.744;10.106;2024-02-21T11:25:35;95943.00;;;24.20
30765;BMP180;494;48.744;10.106;2024-02-21T11:28:05;95815.00;;;24.10
30765;BMP180;494;48.744;10.106;2024-02-21T11:30:36;95894.00;;;24.50
30765;BMP180;494;48.744;10.106;2024-02-21T11:33:07;95811.00;;;25.50
30765;BMP180;494;48.744;10.106;2024-02-21T11:35:36;95925.00;;;25.20
30765;BMP180;494;48.744;10.106;2024-02-21T11:38:10;95946.00;;;25.30
30765;BMP180;494;48.744;10.106;2024-02-21T11:40:45;95755.00;;;25.30
30765;BMP180;494;48.744;10.106;2024-02-21T11:43:15;95904.00;;;25.50
30765;BMP180;494;48.744;10.106;2024-02-21T11:45:44;95863.00;;;25.40
30765;BMP180;494;48.744;10.106;2024-02-21T11:48:15;95911.00;;;25.00
30765;BMP180;494;48.744;10.106;2024-02-21T11:50:53;95823.00;;;23.70
30765;BMP180;494;48.744;10.106;2024-02-21T11:53:23;95816.00;;;24.00
30765;BMP180;494;48.744;10.106;2024-02-21T11:55:54;95779.00;;;23.50
30765;BMP180;494;48.744;10.106;2024-02-21T11:58:24;95766.00;;;22.80
30765;BMP180;494;48.744;10.106;2024-02-21T12:00:53;95641.00;;;22.70
30765;BMP180;494;48.744;10.106;2024-02-21T12:03:24;95767.00;;;22.30
30765;BMP180;494;48.744;10.106;2024-02-21T12:05:53;95721.00;;;22.00
30765;BMP180;494;48.744;10.106;2024-02-21T12:08:24;95882.00;;;21.80
30765;BMP180;494;48.744;10.106;2024-02-21T12:10:53;95711.00;;;21.60
30765;BMP180;494;48.744;10.106;2024-02-21T12:13:23;95745.00;;;21.10
30765;BMP180;494;48.744;10.106;2024-02-21T12:15:52;95862.00;;;21.40
30765;BMP180;494;48.744;10.106;2024-02-21T12:18:23;95660.00;;;20.90
30765;BMP180;494;48.744;10.106;2024-02-21T12:20:53;95858.00;;;20.80
30765;BMP180;494;48.744;10.106;2024-02-21T12:23:27;95776.00;;;19.70
30765;BMP180;494;48.744;10.106;2024-02-21T12:25:56;95845.00;;;20.00
30765;BMP180;494;48.744;10.106;2024-02-21T12:28:24;95926.00;;;19.60
30765;BMP180;494;48.744;10.106;2024-02-21T12:30:53;95615.00;;;19.50
30765;BMP180;494;48.744;10.106;2024-02-21T12:33:24;95722.00;;;19.10
30765;BMP180;494;48.744;10.106;2024-02-21T12:35:53;95889.00;;;19.10
30765;BMP180;494;48.744;10.106;2024-02-21T12:38:22;95855.00;;;18.80
30765;BMP180;494;48.744;10.106;2024-02-21T12:40:52;95416.00;;;18.60
30765;BMP180;494;48.744;10.106;2024-02-21T12:43:21;95726.00;;;18.60
30765;BMP180;494;48.744;10.106;2024-02-21T12:45:50;95816.00;;;18.20
30765;BMP180;494;48.744;10.106;2024-02-21T12:48:18;95703.00;;;18.40
30765;BMP180;494;48.744;10.106;2024-02-21T12:50:50;95517.00;;;18.70
30765;BMP180;494;48.744;10.106;2024-02-21T12:53:20;95755.00;;;19.10
30765;BMP180;494;48.744;10.106;2024-02-21T12:55:59;95573.00;;;19.10
30765;BMP180;494;48.744;10.106;2024-02-21T12:58:28;95523.00;;;19.00
30765;BMP180;494;48.744;10.106;2024-02-21T13:00:59;95624.00;;;19.10
30765;BMP180;494;48.744;10.106;2024-02-21T13:03:27;95067.00;;;19.60
30765;BMP180;494;48.744;10.106;2024-02-21T13:06:01;95771.00;;;19.90
30765;BMP180;494;48.744;10.106;2024-02-21T13:08:30;95610.00;;;20.20
30765;BMP180;494;48.744;10.106;2024-02-21T13:11:01;95680.00;;;20.20
30765;BMP180;494;48.744;10.106;2024-02-21T13:13:31;95690.00;;;21.60
30765;BMP180;494;48.744;10.106;2024-02-21T13:16:00;95702.00;;;22.10
30765;BMP180;494;48.744;10.106;2024-02-21T13:18:31;95744.00;;;21.50
30765;BMP180;494;48.744;10.106;2024-02-21T13:21:10;95643.00;;;22.20
30765;BMP180;494;48.744;10.106;2024-02-21T13:23:41;95743.00;;;22.30
30765;BMP180;494;48.744;10.106;2024-02-21T13:26:11;95548.00;;;22.50
30765;BMP180;494;48.744;10.106;2024-02-21T13:28:44;95736.00;;;22.70
30765;BMP180;494;48.744;10.106;2024-02-21T13:31:13;95769.00;;;22.60
30765;BMP180;494;48.744;10.106;2024-02-21T13:33:45;95610.00;;;22.20
30765;BMP180;494;48.744;10.106;2024-02-21T13:36:15;95533.00;;;22.60
30765;BMP180;494;48.744;10.106;2024-02-21T13:38:45;95602.00;;;22.50
30765;BMP180;494;48.744;10.106;2024-02-21T13:41:18;95608.00;;;22.30
30765;BMP180;494;48.744;10.106;2024-02-21T13:43:51;95707.00;;;21.90
30765;BMP180;494;48.744;10.106;2024-02-21T13:46:24;95452.00;;;20.20
30765;BMP180;494;48.744;10.106;2024-02-21T13:49:03;95694.00;;;21.10
30765;BMP180;494;48.744;10.106;2024-02-21T13:51:36;95692.00;;;20.80
30765;BMP180;494;48.744;10.106;2024-02-21T13:54:05;95584.00;;;20.30
30765;BMP180;494;48.744;10.106;2024-02-21T13:56:37;95601.00;;;19.20
30765;BMP180;494;48.744;10.106;2024-02-21T13:59:05;95510.00;;;19.30
30765;BMP180;494;48.744;10.106;2024-02-21T14:01:35;95182.00;;;19.00
30765;BMP180;494;48.744;10.106;2024-02-21T14:04:04;95626.00;;;18.70
30765;BMP180;494;48.744;10.106;2024-02-21T14:06:34;95348.00;;;18.60
30765;BMP180;494;48.744;10.106;2024-02-21T14:09:29;95666.00;;;17.90
30765;BMP180;494;48.744;10.106;2024-02-21T14:12:13;95279.00;;;18.00
30765;BMP180;494;48.744;10.106;2024-02-21T14:14:43;95670.00;;;17.90
30765;BMP180;494;48.744;10.106;2024-02-21T14:17:12;95428.00;;;17.80
30765;BMP180;494;48.744;10.106;2024-02-21T14:19:42;95488.00;;;17.50
30765;BMP180;494;48.744;10.106;2024-02-21T14:22:13;95160.00;;;17.10
30765;BMP180;494;48.744;10.106;2024-02-21T14:24:42;95696.00;;;17.00
30765;BMP180;494;48.744;10.106;2024-02-21T14:27:11;95648.00;;;16.60
30765;BMP180;494;48.744;10.106;2024-02-21T14:29:40;95663.00;;;16.00
30765;BMP180;494;48.744;10.106;2024-02-21T14:32:13;95474.00;;;16.30
30765;BMP180;494;48.744;10.106;2024-02-21T14:34:41;95511.00;;;16.40
30765;BMP180;494;48.744;10.106;2024-02-21T14:37:11;95656.00;;;16.20
30765;BMP180;494;48.744;10.106;2024-02-21T14:39:59;95370.00;;;14.60
30765;BMP180;494;48.744;10.106;2024-02-21T14:42:31;95634.00;;;15.90
30765;BMP180;494;48.744;10.106;2024-02-21T14:45:05;95634.00;;;15.90
30765;BMP180;494;48.744;10.106;2024-02-21T14:47:34;95604.00;;;15.50
30765;BMP180;494;48.744;10.106;2024-02-21T14:50:06;95523.00;;;16.00